createdAt,value
2018-05-29T00:01:15.270Z,61.00
2018-05-29T00:05:17.790Z,62.70
2018-05-29T00:09:21.093Z,61.20
2018-05-29T00:13:24.391Z,61.50
2018-05-29T00:17:26.939Z,61.60
2018-05-29T00:21:29.485Z,61.20
2018-05-29T00:25:32.023Z,61.70
2018-05-29T00:29:34.558Z,61.30
2018-05-29T00:33:37.118Z,60.70
2018-05-29T00:37:40.440Z,61.70
2018-05-29T00:41:42.996Z,61.70
2018-05-29T00:45:45.524Z,62.30
2018-05-29T00:49:48.064Z,61.90
2018-05-29T00:53:50.663Z,62.60
2018-05-29T00:57:53.959Z,61.70
2018-05-29T01:01:57.388Z,63.00
2018-05-29T01:06:11.337Z,62.60
2018-05-29T01:14:24.726Z,62.00
2018-05-29T01:18:27.263Z,62.60
2018-05-29T01:22:29.807Z,61.00
2018-05-29T01:26:32.367Z,63.70
2018-05-29T01:30:34.892Z,64.10
2018-05-29T01:34:37.435Z,62.30
2018-05-29T01:38:39.987Z,60.90
2018-05-29T01:42:42.543Z,63.70
2018-05-29T01:46:45.089Z,62.90
2018-05-29T01:50:48.375Z,62.40
2018-05-29T01:54:51.681Z,63.50
2018-05-29T01:58:54.988Z,62.30
2018-05-29T02:02:57.530Z,62.30
2018-05-29T02:07:00.068Z,62.00
2018-05-29T02:11:02.591Z,64.00
2018-05-29T02:15:05.137Z,62.90
2018-05-29T02:19:07.690Z,61.90
2018-05-29T02:23:10.218Z,64.10
2018-05-29T02:27:12.756Z,64.00
2018-05-29T02:31:15.275Z,62.70
2018-05-29T02:35:17.828Z,63.50
2018-05-29T02:39:20.359Z,63.60
2018-05-29T02:43:23.667Z,63.20
2018-05-29T02:47:26.521Z,63.20
2018-05-29T02:51:29.812Z,63.70
2018-05-29T02:55:32.346Z,63.70
2018-05-29T02:59:34.894Z,61.70
2018-05-29T03:03:37.463Z,63.30
2018-05-29T03:07:40.004Z,63.80
2018-05-29T03:11:42.524Z,64.30
2018-05-29T03:15:45.064Z,63.50
2018-05-29T03:19:47.616Z,64.40
2018-05-29T03:23:50.923Z,63.70
2018-05-29T03:27:54.225Z,62.70
2018-05-29T03:31:56.763Z,62.70
2018-05-29T03:35:59.296Z,63.50
2018-05-29T03:40:02.606Z,64.10
2018-05-29T03:44:05.912Z,64.00
2018-05-29T03:48:08.455Z,64.10
2018-05-29T03:52:10.994Z,63.20
2018-05-29T03:56:13.512Z,64.80
2018-05-29T04:00:16.055Z,63.40
2018-05-29T04:04:18.593Z,63.60
2018-05-29T04:08:21.135Z,63.40
2018-05-29T04:12:25.268Z,62.30
2018-05-29T04:16:27.795Z,62.30
2018-05-29T04:20:30.339Z,63.00
2018-05-29T04:24:32.896Z,63.30
2018-05-29T04:28:36.201Z,62.80
2018-05-29T04:32:39.504Z,63.30
2018-05-29T04:36:42.787Z,63.60
2018-05-29T04:40:45.355Z,63.70
2018-05-29T04:44:47.900Z,63.00
2018-05-29T04:48:51.208Z,62.80
2018-05-29T04:52:53.752Z,62.80
2018-05-29T04:56:57.056Z,62.00
2018-05-29T05:01:00.366Z,62.40
2018-05-29T05:05:03.676Z,61.70
2018-05-29T05:09:06.219Z,61.70
2018-05-29T05:13:08.758Z,61.80
2018-05-29T05:17:11.274Z,62.20
2018-05-29T05:21:13.814Z,61.70
2018-05-29T05:25:17.117Z,61.80
2018-05-29T05:29:19.655Z,61.80
2018-05-29T05:33:22.204Z,61.10
2018-05-29T05:37:24.723Z,61.40
2018-05-29T05:41:27.259Z,61.10
2018-05-29T05:45:29.808Z,62.60
2018-05-29T05:49:32.411Z,61.90
2018-05-29T05:53:35.895Z,64.60
2018-05-29T05:57:38.473Z,64.80
2018-05-29T06:01:41.027Z,62.50
2018-05-29T06:05:43.599Z,63.60
2018-05-29T06:09:46.135Z,62.00
2018-05-29T06:13:48.682Z,62.50
2018-05-29T06:17:51.223Z,61.30
2018-05-29T06:21:53.752Z,61.30
2018-05-29T06:25:56.308Z,61.90
2018-05-29T06:29:59.616Z,63.00
2018-05-29T06:34:02.927Z,64.10
2018-05-29T06:38:05.474Z,63.00
2018-05-29T06:42:07.997Z,60.90
2018-05-29T06:46:10.548Z,61.10
2018-05-29T06:50:13.092Z,61.80
2018-05-29T06:54:15.636Z,60.90
2018-05-29T06:58:18.948Z,62.50
2018-05-29T07:02:21.470Z,62.30
2018-05-29T07:06:24.036Z,62.30
2018-05-29T07:10:26.588Z,60.60
2018-05-29T07:14:29.930Z,60.80
2018-05-29T07:18:32.461Z,60.80
2018-05-29T07:22:34.987Z,63.90
2018-05-29T07:26:37.529Z,61.30
2018-05-29T07:30:41.328Z,65.30
2018-05-29T07:34:43.889Z,64.90
2018-05-29T07:38:46.431Z,61.20
2018-05-29T07:42:49.720Z,63.70
2018-05-29T07:46:52.260Z,63.30
2018-05-29T07:50:54.799Z,62.20
2018-05-29T07:54:58.112Z,61.80
2018-05-29T07:59:01.422Z,62.80
2018-05-29T08:03:03.958Z,62.70
2018-05-29T08:07:06.504Z,62.00
2018-05-29T08:11:09.052Z,62.90
2018-05-29T08:15:11.590Z,62.10
2018-05-29T08:19:14.917Z,62.00
2018-05-29T08:23:17.446Z,62.10
2018-05-29T08:27:20.754Z,63.00
2018-05-29T08:31:24.083Z,66.20
2018-05-29T08:35:26.624Z,66.20
2018-05-29T08:39:29.973Z,62.90
2018-05-29T08:43:32.531Z,62.80
2018-05-29T08:47:35.824Z,63.00
2018-05-29T08:51:39.184Z,62.90
2018-05-29T08:55:41.725Z,62.90
2018-05-29T08:59:45.033Z,62.60
2018-05-29T09:03:47.575Z,62.50
2018-05-29T09:07:50.118Z,62.70
2018-05-29T09:11:52.723Z,62.80
2018-05-29T09:15:55.235Z,62.40
2018-05-29T09:19:57.823Z,61.80
2018-05-29T09:24:00.356Z,61.20
2018-05-29T09:28:02.888Z,61.10
2018-05-29T09:32:05.428Z,61.30
2018-05-29T09:40:15.484Z,58.80
2018-05-29T09:44:18.787Z,59.10
2018-05-29T09:48:22.125Z,58.60
2018-05-29T09:52:25.406Z,57.90
2018-05-29T09:56:27.953Z,57.70
2018-05-29T10:00:36.210Z,58.60
2018-05-29T10:04:38.747Z,58.30
2018-05-29T10:08:41.274Z,57.00
2018-05-29T10:12:43.827Z,56.00
2018-05-29T10:16:47.794Z,56.60
2018-05-29T10:20:50.356Z,54.10
2018-05-29T10:24:53.655Z,56.20
2018-05-29T10:28:56.939Z,54.30
2018-05-29T10:33:00.640Z,54.20
2018-05-29T10:37:03.986Z,54.10
2018-05-29T10:41:06.686Z,54.10
2018-05-29T10:45:09.223Z,54.40
2018-05-29T10:49:11.789Z,54.00
2018-05-29T10:53:14.307Z,53.70
2018-05-29T10:57:17.615Z,53.70
2018-05-29T11:01:20.922Z,54.10
2018-05-29T11:05:24.220Z,52.70
2018-05-29T11:09:27.518Z,52.50
2018-05-29T11:13:30.036Z,52.50
2018-05-29T11:17:32.598Z,52.80
2018-05-29T11:21:35.137Z,52.60
2018-05-29T11:25:37.706Z,49.50
2018-05-29T11:29:40.248Z,51.90
2018-05-29T11:33:43.535Z,59.70
2018-05-29T11:37:46.110Z,48.90
2018-05-29T11:41:48.648Z,48.20
2018-05-29T11:45:51.204Z,49.60
2018-05-29T11:49:54.512Z,49.20
2018-05-29T11:53:57.795Z,49.10
2018-05-29T11:58:00.436Z,49.10
2018-05-29T12:02:02.971Z,46.90
2018-05-29T12:06:05.515Z,48.70
2018-05-29T12:10:08.047Z,47.00
2018-05-29T12:14:11.347Z,47.50
2018-05-29T12:18:13.888Z,47.50
2018-05-29T12:22:16.468Z,48.70
2018-05-29T12:26:18.977Z,46.90
2018-05-29T12:30:21.507Z,46.50
2018-05-29T12:34:24.816Z,47.90
2018-05-29T12:38:28.098Z,48.30
2018-05-29T12:42:30.631Z,47.90
2018-05-29T12:46:33.167Z,48.10
2018-05-29T12:50:36.462Z,45.90
2018-05-29T12:54:38.975Z,46.20
2018-05-29T12:58:41.504Z,45.80
2018-05-29T13:02:44.053Z,45.00
2018-05-29T13:06:46.603Z,46.30
2018-05-29T13:10:49.933Z,47.10
2018-05-29T13:14:52.467Z,47.10
2018-05-29T14:36:27.122Z,47.10
2018-05-29T14:40:29.659Z,44.70
2018-05-29T14:44:32.177Z,44.80
2018-05-29T14:48:34.715Z,43.10
2018-05-29T14:52:37.256Z,44.00
2018-05-29T14:56:39.791Z,43.80
2018-05-29T15:00:42.326Z,43.80
2018-05-29T15:04:44.879Z,43.60
2018-05-29T15:08:47.411Z,42.40
2018-05-29T15:12:50.720Z,42.80
2018-05-29T15:16:54.020Z,42.60
2018-05-29T15:20:57.325Z,42.40
2018-05-29T15:25:00.639Z,42.30
2018-05-29T15:29:03.938Z,42.80
2018-05-29T15:33:06.480Z,43.00
2018-05-29T15:37:09.023Z,42.90
2018-05-29T15:41:11.559Z,43.70
2018-05-29T15:45:14.120Z,43.40
2018-05-29T15:49:16.655Z,43.70
2018-05-29T15:53:19.953Z,44.60
2018-05-29T15:57:22.504Z,44.60
2018-05-29T16:01:25.043Z,45.20
2018-05-29T16:05:27.582Z,44.80
2018-05-29T16:09:30.110Z,44.90
2018-05-29T16:13:35.069Z,44.80
2018-05-29T16:17:37.614Z,45.30
2018-05-29T16:21:40.165Z,45.00
2018-05-29T16:25:42.743Z,45.80
2018-05-29T16:29:45.492Z,46.00
2018-05-29T16:33:48.033Z,46.60
2018-05-29T16:37:50.574Z,46.40
2018-05-29T16:41:53.117Z,46.60
2018-05-29T16:45:56.446Z,47.40
2018-05-29T16:49:59.731Z,47.20
2018-05-29T16:54:03.051Z,47.40
2018-05-29T16:58:05.609Z,47.30
2018-05-29T17:02:08.153Z,47.80
2018-05-29T17:06:11.451Z,47.50
2018-05-29T17:10:13.968Z,47.40
2018-05-29T17:14:16.508Z,47.70
2018-05-29T17:18:19.048Z,47.60
2018-05-29T17:22:24.220Z,47.80
2018-05-29T17:26:27.572Z,48.30
2018-05-29T17:30:30.100Z,48.30
2018-05-29T17:34:33.415Z,48.80
2018-05-29T17:38:36.717Z,49.20
2018-05-29T17:42:40.015Z,49.30
2018-05-29T17:46:43.320Z,49.10
2018-05-29T17:50:46.603Z,49.30
2018-05-29T17:54:49.139Z,49.20
2018-05-29T17:58:51.684Z,49.30
2018-05-29T18:02:54.235Z,49.40
2018-05-29T18:06:56.772Z,49.50
2018-05-29T18:10:59.290Z,49.40
2018-05-29T18:15:01.845Z,49.60
2018-05-29T18:19:04.475Z,49.60
2018-05-29T18:23:07.038Z,50.50
2018-05-29T18:27:09.588Z,50.00
2018-05-29T18:31:12.182Z,50.80
2018-05-29T18:35:14.684Z,51.20
2018-05-29T18:39:17.226Z,51.10
2018-05-29T18:43:19.772Z,52.60
2018-05-29T18:47:22.316Z,51.30
2018-05-29T18:51:25.603Z,53.20
2018-05-29T18:55:28.920Z,53.30
2018-05-29T18:59:32.219Z,54.80
2018-05-29T19:03:35.571Z,55.00
2018-05-29T19:07:38.079Z,55.10
2018-05-29T19:11:40.617Z,55.60
2018-05-29T19:15:43.143Z,54.80
2018-05-29T19:19:45.687Z,56.20
2018-05-29T19:23:48.220Z,56.20
2018-05-29T19:27:54.734Z,54.40
2018-05-29T19:31:57.287Z,55.30
2018-05-29T19:35:59.827Z,55.50
2018-05-29T19:40:02.383Z,55.90
2018-05-29T19:44:05.691Z,53.90
2018-05-29T19:48:08.230Z,53.90
2018-05-29T19:52:10.767Z,54.70
2018-05-29T19:56:13.293Z,55.30
2018-05-29T20:00:15.853Z,54.20
2018-05-29T20:04:18.403Z,54.70
2018-05-29T20:08:21.707Z,57.00
2018-05-29T20:12:25.020Z,55.30
2018-05-29T20:16:27.540Z,55.40
2018-05-29T20:20:30.088Z,56.90
2018-05-29T20:24:33.387Z,60.40
2018-05-29T20:28:36.690Z,55.30
2018-05-29T20:32:39.992Z,57.80
2018-05-29T20:36:43.329Z,57.30
2018-05-29T20:40:45.871Z,57.50
2018-05-29T20:44:49.167Z,56.90
2018-05-29T20:48:51.703Z,57.00
2018-05-29T20:52:54.257Z,57.40
2018-05-29T20:56:57.555Z,57.90
2018-05-29T21:01:00.915Z,58.10
2018-05-29T21:05:03.419Z,58.00
2018-05-29T21:09:05.955Z,56.60
2018-05-29T21:13:08.509Z,57.00
2018-05-29T21:17:11.795Z,57.80
2018-05-29T21:21:15.109Z,59.00
2018-05-29T21:25:17.686Z,59.00
2018-05-29T21:29:20.223Z,62.70
2018-05-29T21:33:22.765Z,69.30
2018-05-29T21:37:26.049Z,69.70
2018-05-29T21:41:28.626Z,69.90
2018-05-29T21:45:31.299Z,69.00
2018-05-29T21:49:33.833Z,69.90
2018-05-29T21:53:36.412Z,63.30
2018-05-29T21:57:38.915Z,61.50
2018-05-29T22:01:42.211Z,63.10
2018-05-29T22:05:45.517Z,65.80
2018-05-29T22:09:48.814Z,65.10
2018-05-29T22:13:52.156Z,68.20
2018-05-29T22:17:54.700Z,68.40
2018-05-29T22:21:58.009Z,70.40
2018-05-29T22:26:00.560Z,70.30
2018-05-29T22:30:03.096Z,62.90
2018-05-29T22:34:05.733Z,62.70
2018-05-29T22:38:08.243Z,61.60
2018-05-29T22:42:11.548Z,62.50
2018-05-29T22:46:14.851Z,63.40
2018-05-29T22:50:18.159Z,67.10
2018-05-29T22:54:21.464Z,68.50
2018-05-29T22:58:24.750Z,67.90
2018-05-29T23:02:27.291Z,67.70
2018-05-29T23:06:29.822Z,68.90
2018-05-29T23:10:33.143Z,65.20
2018-05-29T23:14:35.716Z,65.20
2018-05-29T23:18:39.002Z,67.10
2018-05-29T23:22:41.622Z,68.00
2018-05-29T23:26:44.164Z,63.30
2018-05-29T23:30:46.707Z,71.30
2018-05-29T23:34:49.248Z,62.90
2018-05-29T23:38:51.767Z,64.60
2018-05-29T23:42:54.303Z,62.50
2018-05-29T23:46:56.848Z,64.70
2018-05-29T23:50:59.391Z,63.40
2018-05-29T23:55:02.699Z,64.50
2018-05-29T23:59:05.991Z,62.10
